Time;durP1;ratioP1;P1;durP2;ratioP2;P2;SDS_P1;SDS_P2;PMS_P1;PMS_P2;Temp;Humidity;BMP_temperature;BMP_pressure;BME280_temperature;BME280_humidity;BME280_pressure;Samples;Min_cycle;Max_cycle;Signal;HPM_P1;HPM_P2
2022/06/12 00:00:24;;;;;;;9.37;7.00;;;16.80;97.30;;;;;;5075083;28;20965;-83
2022/06/12 00:02:49;;;;;;;8.90;6.87;;;16.70;97.30;;;;;;5076155;28;20224;-82
2022/06/12 00:05:17;;;;;;;10.00;7.57;;;16.70;97.30;;;;;;5082358;28;20421;-82
2022/06/12 00:07:43;;;;;;;12.23;7.60;;;16.70;97.30;;;;;;5089148;28;20262;-82
2022/06/12 00:10:10;;;;;;;16.53;9.33;;;16.60;97.30;;;;;;5089339;28;20837;-82
2022/06/12 00:12:38;;;;;;;11.40;8.30;;;16.60;97.30;;;;;;5089404;28;20170;-83
2022/06/12 00:15:04;;;;;;;14.23;8.77;;;16.60;97.30;;;;;;5088465;28;20427;-82
2022/06/12 00:17:30;;;;;;;14.40;8.80;;;16.60;97.30;;;;;;5089357;28;20448;-82
2022/06/12 00:19:55;;;;;;;11.37;8.40;;;16.60;97.30;;;;;;5076828;28;20511;-82
2022/06/12 00:22:21;;;;;;;11.07;7.77;;;16.50;97.30;;;;;;5075448;28;20238;-82
2022/06/12 00:24:47;;;;;;;14.77;8.27;;;16.50;97.30;;;;;;5083699;28;20175;-82
2022/06/12 00:27:14;;;;;;;12.40;7.57;;;16.50;97.30;;;;;;5081919;28;20204;-83
2022/06/12 00:29:39;;;;;;;17.43;7.60;;;16.40;97.30;;;;;;5072863;28;20194;-83
2022/06/12 00:32:09;;;;;;;12.63;7.83;;;16.40;97.30;;;;;;5079423;28;20524;-82
2022/06/12 00:34:39;;;;;;;12.40;8.33;;;16.40;97.30;;;;;;5085358;28;20179;-82
2022/06/12 00:37:05;;;;;;;11.60;7.33;;;16.30;97.30;;;;;;5089379;28;20433;-81
2022/06/12 00:39:32;;;;;;;13.00;8.10;;;16.30;97.30;;;;;;5089172;28;20416;-82
2022/06/12 00:42:00;;;;;;;13.83;8.97;;;16.30;97.30;;;;;;5072313;28;20470;-82
2022/06/12 00:44:34;;;;;;;10.30;8.20;;;16.20;97.30;;;;;;5072399;28;20802;-82
2022/06/12 00:47:08;;;;;;;12.90;8.87;;;16.20;97.30;;;;;;5085900;28;20440;-82
2022/06/12 00:49:40;;;;;;;12.33;8.67;;;16.20;97.30;;;;;;5079791;28;20965;-81
2022/06/12 00:52:20;;;;;;;10.17;8.07;;;16.20;97.30;;;;;;5085684;28;20451;-82
2022/06/12 00:54:49;;;;;;;12.77;8.10;;;16.10;97.30;;;;;;5069218;28;20459;-82
2022/06/12 00:57:16;;;;;;;13.43;8.17;;;16.10;97.30;;;;;;5083559;28;20434;-82
2022/06/12 00:59:51;;;;;;;12.47;7.73;;;16.10;97.30;;;;;;5070465;28;20421;-82
2022/06/12 01:02:22;;;;;;;13.00;8.23;;;16.10;97.30;;;;;;5071632;28;20416;-82
2022/06/12 01:07:40;;;;;;;12.90;7.63;;;16.10;97.30;;;;;;5076539;28;20505;-82
2022/06/12 01:10:10;;;;;;;9.73;8.00;;;16.10;97.30;;;;;;5078394;28;20433;-82
2022/06/12 01:12:43;;;;;;;11.27;7.73;;;16.00;97.30;;;;;;5072033;28;20408;-82
2022/06/12 01:15:14;;;;;;;15.20;8.53;;;16.00;97.30;;;;;;5089005;28;20507;-82
2022/06/12 01:17:40;;;;;;;10.47;7.10;;;16.00;97.30;;;;;;5086198;28;20429;-82
2022/06/12 01:20:12;;;;;;;9.03;7.70;;;16.00;97.30;;;;;;5061652;28;20933;-82
2022/06/12 01:23:01;;;;;;;13.00;8.30;;;16.00;97.30;;;;;;5089261;28;21045;-82
2022/06/12 01:25:54;;;;;;;11.50;8.10;;;16.00;97.30;;;;;;5089656;28;20811;-81
2022/06/12 01:28:33;;;;;;;17.20;9.87;;;16.00;97.30;;;;;;5066945;28;20984;-82
2022/06/12 01:31:18;;;;;;;13.00;9.33;;;16.00;97.30;;;;;;5092184;28;20420;-82
2022/06/12 01:33:58;;;;;;;13.40;8.77;;;15.90;97.30;;;;;;5093747;28;20472;-82
2022/06/12 01:36:39;;;;;;;13.53;8.03;;;15.90;97.30;;;;;;5092697;28;20435;-82
2022/06/12 01:39:22;;;;;;;11.37;8.20;;;15.90;97.30;;;;;;5079490;28;20503;-81
2022/06/12 01:41:56;;;;;;;14.80;9.03;;;15.90;97.30;;;;;;5076124;28;20416;-82
2022/06/12 01:44:44;;;;;;;11.03;7.70;;;15.90;97.30;;;;;;5072479;28;20449;-82
2022/06/12 01:47:22;;;;;;;13.37;8.10;;;15.80;97.30;;;;;;5092447;28;20436;-82
2022/06/12 01:50:03;;;;;;;14.30;9.07;;;15.80;97.30;;;;;;5089846;28;21147;-82
2022/06/12 01:52:39;;;;;;;11.27;7.43;;;15.80;97.30;;;;;;5072574;28;20814;-82
2022/06/12 01:55:15;;;;;;;11.60;8.60;;;15.80;97.30;;;;;;5086931;28;20952;-81
2022/06/12 01:57:55;;;;;;;18.80;8.77;;;15.80;97.30;;;;;;5085192;28;20842;-82
2022/06/12 02:00:23;;;;;;;12.93;8.27;;;15.80;97.30;;;;;;5079206;28;20441;-81
2022/06/12 02:02:55;;;;;;;16.47;9.07;;;15.80;97.30;;;;;;5073363;28;20413;-81
2022/06/12 02:05:34;;;;;;;12.63;8.23;;;15.80;97.30;;;;;;5084796;28;20425;-80
2022/06/12 02:08:18;;;;;;;10.30;7.53;;;15.90;97.30;;;;;;5075025;28;20464;-81
2022/06/12 02:10:51;;;;;;;13.03;7.77;;;15.90;97.30;;;;;;5076885;28;20474;-81
2022/06/12 02:13:32;;;;;;;10.60;8.17;;;15.90;97.30;;;;;;5087627;28;20414;-82
2022/06/12 02:16:12;;;;;;;13.77;7.67;;;15.90;97.30;;;;;;5073790;28;20429;-82
2022/06/12 02:19:02;;;;;;;13.07;8.37;;;15.90;97.30;;;;;;5087526;28;20424;-81
2022/06/12 02:21:32;;;;;;;14.67;7.60;;;15.90;97.30;;;;;;5084239;28;20462;-81
2022/06/12 02:24:03;;;;;;;16.90;8.73;;;16.00;97.30;;;;;;5090770;28;20794;-81
2022/06/12 02:26:39;;;;;;;10.63;7.60;;;16.00;97.30;;;;;;5076171;28;20443;-81
2022/06/12 02:29:10;;;;;;;14.57;8.00;;;16.00;97.30;;;;;;5073050;28;21213;-82
2022/06/12 02:31:41;;;;;;;13.67;8.70;;;16.00;97.30;;;;;;5083197;28;20412;-81
2022/06/12 02:34:17;;;;;;;9.93;7.30;;;16.00;97.30;;;;;;5090087;28;20413;-80
2022/06/12 02:36:48;;;;;;;16.60;8.10;;;16.10;97.30;;;;;;5082444;28;20499;-82
2022/06/12 02:39:19;;;;;;;15.47;8.03;;;16.10;97.30;;;;;;5088325;28;20531;-82
2022/06/12 02:41:51;;;;;;;10.80;6.77;;;16.10;97.30;;;;;;5092567;28;20420;-82
2022/06/12 02:44:51;;;;;;;10.50;8.00;;;16.20;97.30;;;;;;5075850;28;20493;-81
2022/06/12 02:47:21;;;;;;;12.47;7.67;;;16.20;97.30;;;;;;5084637;28;20445;-82
2022/06/12 02:49:49;;;;;;;11.90;7.53;;;16.20;97.30;;;;;;5077866;28;20470;-81
2022/06/12 02:52:23;;;;;;;9.73;7.00;;;16.20;97.30;;;;;;5080618;28;20425;-82
2022/06/12 02:54:52;;;;;;;12.87;6.70;;;16.20;97.30;;;;;;5090879;28;20420;-82
2022/06/12 02:57:34;;;;;;;16.47;7.20;;;16.30;97.30;;;;;;5082969;28;20447;-82
2022/06/12 03:00:17;;;;;;;10.00;7.43;;;16.30;97.30;;;;;;5076839;28;20508;-82
2022/06/12 03:02:57;;;;;;;10.63;7.13;;;16.30;97.30;;;;;;5093336;28;20421;-82
2022/06/12 03:05:27;;;;;;;12.23;7.20;;;16.30;97.30;;;;;;5073456;28;20421;-82
2022/06/12 03:08:00;;;;;;;10.13;7.17;;;16.40;97.30;;;;;;5085863;28;20493;-81
2022/06/12 03:10:36;;;;;;;14.07;8.07;;;16.40;97.30;;;;;;5071671;28;20418;-82
2022/06/12 03:13:05;;;;;;;10.67;7.50;;;16.40;97.30;;;;;;5086301;28;20416;-83
2022/06/12 03:15:33;;;;;;;16.43;8.40;;;16.50;97.30;;;;;;5074647;28;20441;-82
2022/06/12 03:18:01;;;;;;;17.03;7.40;;;16.50;97.30;;;;;;5070932;28;20433;-82
2022/06/12 03:20:36;;;;;;;17.80;7.93;;;16.50;97.30;;;;;;5070413;28;20471;-82
2022/06/12 03:23:26;;;;;;;11.90;7.77;;;16.50;97.30;;;;;;5091878;28;20470;-82
2022/06/12 03:25:56;;;;;;;13.27;7.87;;;16.50;97.30;;;;;;5090494;28;20428;-82
2022/06/12 03:29:02;;;;;;;11.30;7.37;;;16.50;97.30;;;;;;5106116;28;20464;-82
2022/06/12 03:31:40;;;;;;;13.10;7.37;;;16.50;97.30;;;;;;5084477;28;20412;-82
2022/06/12 03:34:15;;;;;;;17.07;8.43;;;16.50;97.30;;;;;;5105730;28;20667;-82
2022/06/12 03:36:51;;;;;;;15.33;8.27;;;16.50;97.30;;;;;;5104622;28;20431;-82
2022/06/12 03:39:28;;;;;;;12.37;7.50;;;16.50;97.30;;;;;;5111596;28;20423;-82
2022/06/12 03:42:02;;;;;;;11.63;8.33;;;16.50;97.30;;;;;;5112901;27;20418;-82
2022/06/12 03:44:46;;;;;;;10.03;7.47;;;16.50;97.30;;;;;;5108062;28;21109;-82
2022/06/12 03:47:34;;;;;;;13.33;7.83;;;16.50;97.30;;;;;;5090670;28;20829;-82
2022/06/12 03:50:10;;;;;;;11.80;7.90;;;16.50;97.30;;;;;;5090294;28;20507;-82
2022/06/12 03:52:38;;;;;;;12.10;7.50;;;16.50;97.30;;;;;;5105251;28;20411;-81
2022/06/12 03:55:20;;;;;;;12.93;8.30;;;16.50;97.30;;;;;;5112523;28;20959;-82
2022/06/12 03:57:53;;;;;;;12.13;7.93;;;16.50;97.30;;;;;;5096735;28;20981;-82
2022/06/12 04:00:24;;;;;;;12.20;8.27;;;16.50;97.30;;;;;;5102843;28;20421;-82
2022/06/12 04:02:59;;;;;;;16.13;7.63;;;16.50;97.30;;;;;;5090309;28;20452;-82
2022/06/12 04:05:31;;;;;;;11.13;8.10;;;16.50;97.30;;;;;;5109996;28;20483;-81
2022/06/12 04:07:59;;;;;;;12.67;7.97;;;16.50;97.30;;;;;;5098443;28;20526;-82
2022/06/12 04:10:30;;;;;;;17.33;7.47;;;16.50;97.30;;;;;;5102910;28;20921;-81
2022/06/12 04:12:57;;;;;;;13.10;8.20;;;16.50;97.30;;;;;;5090073;28;20834;-82
2022/06/12 04:15:31;;;;;;;14.83;8.20;;;16.60;97.30;;;;;;5110497;28;20415;-81
2022/06/12 04:17:58;;;;;;;14.13;9.27;;;16.60;97.30;;;;;;5096953;28;20782;-82
2022/06/12 04:20:56;;;;;;;15.00;8.73;;;16.60;97.30;;;;;;5089704;28;20891;-82
2022/06/12 04:23:50;;;;;;;12.97;8.57;;;16.70;97.30;;;;;;5105247;28;20470;-82
2022/06/12 04:26:41;;;;;;;13.00;7.93;;;16.70;97.30;;;;;;5095981;28;20440;-82
2022/06/12 04:29:12;;;;;;;12.43;8.87;;;16.70;97.30;;;;;;5110339;28;20467;-81
2022/06/12 04:31:41;;;;;;;14.63;8.57;;;16.70;97.30;;;;;;5089838;28;20428;-82
2022/06/12 04:34:10;;;;;;;10.20;7.20;;;16.70;97.30;;;;;;5089799;28;20419;-81
2022/06/12 04:36:36;;;;;;;10.83;8.23;;;16.80;97.30;;;;;;5106955;28;20438;-82
2022/06/12 04:39:03;;;;;;;17.73;9.30;;;16.80;97.30;;;;;;5109412;28;20476;-82
2022/06/12 04:41:31;;;;;;;17.50;8.37;;;16.80;97.30;;;;;;5097052;28;20403;-82
2022/06/12 04:43:58;;;;;;;13.80;8.40;;;16.80;97.30;;;;;;5110066;28;20424;-82
2022/06/12 04:46:24;;;;;;;12.67;9.47;;;16.90;97.30;;;;;;5109868;28;20436;-82
2022/06/12 04:48:51;;;;;;;16.97;10.00;;;16.90;97.30;;;;;;5110733;28;20455;-81
2022/06/12 04:51:18;;;;;;;16.40;9.33;;;16.90;97.30;;;;;;5110378;28;20943;-82
2022/06/12 04:53:45;;;;;;;18.17;9.43;;;17.00;97.30;;;;;;5110942;28;20444;-80
2022/06/12 04:56:13;;;;;;;14.30;9.27;;;17.00;97.30;;;;;;5096294;28;20436;-82
2022/06/12 04:58:39;;;;;;;18.50;9.43;;;17.10;97.30;;;;;;5111855;28;20487;-82
2022/06/12 05:01:05;;;;;;;16.10;9.37;;;17.10;97.30;;;;;;5097921;28;20507;-81
2022/06/12 05:03:31;;;;;;;11.23;7.83;;;17.10;97.30;;;;;;5095173;28;20516;-81
2022/06/12 05:05:57;;;;;;;15.90;8.30;;;17.10;97.30;;;;;;5106624;28;20608;-80
2022/06/12 05:08:23;;;;;;;17.67;9.03;;;17.20;97.30;;;;;;5095948;28;20206;-82
2022/06/12 05:10:48;;;;;;;12.07;7.90;;;17.20;97.30;;;;;;5094284;28;20421;-81
2022/06/12 05:13:15;;;;;;;14.00;8.63;;;17.30;97.30;;;;;;5096045;28;20185;-81
2022/06/12 05:15:41;;;;;;;16.47;8.57;;;17.30;97.30;;;;;;5114899;28;20181;-82
2022/06/12 05:18:07;;;;;;;15.63;8.97;;;17.40;97.30;;;;;;5100093;28;21017;-81
2022/06/12 05:20:35;;;;;;;17.90;9.10;;;17.40;97.30;;;;;;5101317;28;20363;-82
2022/06/12 05:23:04;;;;;;;15.17;9.43;;;17.40;97.30;;;;;;5109412;28;20463;-81
2022/06/12 05:25:32;;;;;;;12.70;8.50;;;17.50;97.30;;;;;;5112753;28;20437;-81
2022/06/12 05:28:00;;;;;;;15.33;8.33;;;17.50;97.30;;;;;;5110012;28;21099;-81
2022/06/12 05:30:30;;;;;;;21.80;8.90;;;17.60;97.30;;;;;;5105658;28;20419;-81
2022/06/12 05:32:59;;;;;;;14.73;9.10;;;17.60;97.30;;;;;;5107062;28;20407;-81
2022/06/12 05:35:28;;;;;;;17.33;7.97;;;17.60;97.30;;;;;;5097290;28;20430;-81
2022/06/12 05:37:55;;;;;;;14.93;9.20;;;17.70;97.30;;;;;;5112772;27;20444;-82
2022/06/12 05:40:27;;;;;;;12.30;8.13;;;17.70;97.30;;;;;;5103690;28;20420;-81
2022/06/12 05:42:54;;;;;;;11.63;8.17;;;17.70;97.30;;;;;;5104431;28;20419;-81
2022/06/12 05:45:25;;;;;;;12.73;8.17;;;17.70;97.30;;;;;;5105378;28;20768;-81
2022/06/12 05:48:13;;;;;;;12.70;7.80;;;17.80;97.30;;;;;;5111214;28;20457;-82
2022/06/12 05:50:47;;;;;;;13.43;8.13;;;17.80;97.30;;;;;;5106853;28;20424;-81
2022/06/12 05:53:14;;;;;;;16.67;8.63;;;17.90;97.30;;;;;;5101109;28;20515;-81
2022/06/12 05:55:44;;;;;;;17.53;8.57;;;17.90;97.30;;;;;;5105947;28;20423;-81
2022/06/12 05:58:10;;;;;;;13.17;8.93;;;18.00;97.30;;;;;;5104261;28;20973;-81
2022/06/12 06:00:36;;;;;;;13.83;8.07;;;18.00;97.30;;;;;;5101349;28;20464;-82
2022/06/12 06:03:04;;;;;;;12.00;7.73;;;18.00;97.30;;;;;;5116634;27;20408;-81
2022/06/12 06:05:31;;;;;;;13.20;8.37;;;18.10;97.30;;;;;;5111148;28;20186;-81
2022/06/12 06:07:58;;;;;;;17.97;8.97;;;18.10;97.30;;;;;;5101963;28;20455;-81
2022/06/12 06:10:26;;;;;;;13.33;7.90;;;18.20;97.30;;;;;;5110207;28;20492;-81
2022/06/12 06:12:53;;;;;;;14.40;8.47;;;18.30;97.30;;;;;;5104542;28;20423;-81
2022/06/12 06:15:19;;;;;;;15.53;8.40;;;18.30;97.30;;;;;;5109242;27;20484;-82
2022/06/12 06:17:47;;;;;;;13.50;7.83;;;18.40;97.30;;;;;;5105431;28;20437;-81
2022/06/12 06:20:22;;;;;;;11.63;8.17;;;18.50;97.30;;;;;;5109265;28;20419;-83
2022/06/12 06:22:48;;;;;;;11.63;7.63;;;18.60;97.30;;;;;;5097929;28;20824;-82
2022/06/12 06:25:14;;;;;;;9.93;6.83;;;18.70;97.30;;;;;;5102185;28;20431;-82
2022/06/12 06:27:40;;;;;;;10.57;7.20;;;18.70;97.30;;;;;;5100696;28;20432;-82
2022/06/12 06:30:06;;;;;;;10.50;6.53;;;18.80;97.30;;;;;;5111052;27;20228;-82
2022/06/12 06:32:34;;;;;;;10.80;6.00;;;18.90;97.30;;;;;;5113832;27;20181;-82
2022/06/12 06:35:01;;;;;;;8.07;6.27;;;19.00;97.30;;;;;;5105439;28;20462;-81
2022/06/12 06:37:26;;;;;;;11.07;6.40;;;19.10;97.30;;;;;;5103483;28;20452;-81
2022/06/12 06:39:53;;;;;;;9.23;5.70;;;19.10;97.30;;;;;;5111319;28;20873;-81
2022/06/12 06:42:19;;;;;;;10.47;6.07;;;19.20;97.30;;;;;;5104130;28;20424;-82
2022/06/12 06:47:31;;;;;;;11.53;5.60;;;19.40;97.30;;;;;;5109643;28;20611;-82
2022/06/12 06:49:57;;;;;;;7.80;5.10;;;19.50;97.30;;;;;;5097895;28;20529;-82
2022/06/12 06:52:23;;;;;;;9.57;5.80;;;19.50;97.30;;;;;;5117424;27;20441;-82
2022/06/12 06:54:49;;;;;;;10.73;6.67;;;19.60;97.30;;;;;;5096369;28;20421;-82
2022/06/12 06:57:16;;;;;;;9.43;5.60;;;19.70;97.30;;;;;;5095883;28;20202;-82
2022/06/12 06:59:41;;;;;;;10.37;5.83;;;19.80;97.30;;;;;;5097891;28;20460;-82
2022/06/12 07:02:12;;;;;;;13.03;7.63;;;19.80;97.30;;;;;;5098268;28;20424;-83
2022/06/12 07:04:39;;;;;;;14.47;8.17;;;19.90;97.30;;;;;;5112204;27;20242;-82
2022/06/12 07:07:05;;;;;;;18.83;7.53;;;20.00;97.30;;;;;;5112259;27;20498;-80
2022/06/12 07:09:31;;;;;;;11.63;8.10;;;20.00;97.30;;;;;;5103198;28;20463;-82
2022/06/12 07:11:56;;;;;;;12.93;7.70;;;20.10;97.30;;;;;;5108860;28;20473;-83
2022/06/12 07:14:25;;;;;;;14.33;8.60;;;20.10;97.30;;;;;;5101816;28;20179;-82
2022/06/12 07:16:50;;;;;;;13.93;8.50;;;20.10;97.30;;;;;;5106301;28;20194;-82
2022/06/12 07:19:16;;;;;;;11.13;7.60;;;20.20;97.30;;;;;;5108748;28;20549;-83
2022/06/12 07:21:41;;;;;;;11.63;8.53;;;20.20;97.30;;;;;;5096695;28;20229;-82
2022/06/12 07:24:07;;;;;;;14.20;7.20;;;20.20;97.30;;;;;;5110325;28;20204;-82
2022/06/12 07:26:37;;;;;;;11.67;7.00;;;20.20;97.30;;;;;;5108051;27;20205;-82
2022/06/12 07:29:03;;;;;;;10.63;7.30;;;20.30;97.30;;;;;;5103582;27;20464;-82
2022/06/12 07:31:30;;;;;;;13.40;6.53;;;20.30;97.30;;;;;;5102535;28;20412;-82
2022/06/12 07:33:56;;;;;;;12.47;6.90;;;20.40;97.30;;;;;;5105591;27;20431;-83
2022/06/12 07:36:21;;;;;;;10.63;5.80;;;20.40;97.30;;;;;;5111023;27;20428;-82
2022/06/12 07:38:49;;;;;;;7.40;4.60;;;20.50;97.30;;;;;;5112683;27;20443;-83
2022/06/12 07:41:16;;;;;;;13.17;6.03;;;20.50;97.30;;;;;;5111534;27;20181;-81
2022/06/12 07:43:43;;;;;;;9.33;5.47;;;20.60;97.30;;;;;;5120059;27;20426;-83
2022/06/12 07:46:12;;;;;;;6.93;4.00;;;20.60;97.30;;;;;;5111401;27;20450;-81
2022/06/12 07:48:39;;;;;;;6.10;4.17;;;20.70;97.30;;;;;;5114169;27;20458;-83
2022/06/12 07:51:08;;;;;;;5.00;3.60;;;20.70;97.30;;;;;;5112310;28;20430;-83
2022/06/12 07:53:34;;;;;;;6.20;3.53;;;20.80;97.30;;;;;;5101302;27;20804;-82
2022/06/12 07:56:01;;;;;;;7.23;4.03;;;20.90;97.30;;;;;;5118642;27;20420;-82
2022/06/12 07:58:27;;;;;;;8.63;4.37;;;21.00;97.30;;;;;;5110761;28;20527;-82
2022/06/12 08:00:57;;;;;;;6.20;4.40;;;21.00;97.30;;;;;;5108281;28;20438;-83
2022/06/12 08:03:25;;;;;;;5.57;4.40;;;21.10;97.30;;;;;;5102655;28;20431;-82
2022/06/12 08:05:51;;;;;;;9.50;5.00;;;21.20;97.30;;;;;;5116665;27;20454;-82
2022/06/12 08:08:17;;;;;;;6.40;4.57;;;21.20;97.30;;;;;;5090134;28;20492;-81
2022/06/12 08:10:42;;;;;;;7.67;4.60;;;21.30;97.30;;;;;;5105891;28;20650;-82
2022/06/12 08:13:10;;;;;;;7.50;4.80;;;21.30;97.30;;;;;;5116940;27;20443;-82
2022/06/12 08:15:38;;;;;;;8.50;4.57;;;21.40;97.30;;;;;;5116465;27;20200;-82
2022/06/12 08:18:04;;;;;;;6.83;4.43;;;21.50;97.00;;;;;;5114585;28;20444;-82
2022/06/12 08:20:32;;;;;;;5.23;4.37;;;21.50;96.90;;;;;;5113404;27;20426;-81
2022/06/12 08:23:28;;;;;;;4.93;3.60;;;21.60;96.90;;;;;;5118333;27;20462;-82
2022/06/12 08:26:14;;;;;;;5.67;4.33;;;21.70;96.30;;;;;;5114200;27;20414;-82
2022/06/12 08:28:45;;;;;;;5.80;3.90;;;21.80;96.30;;;;;;5096961;28;20880;-82
2022/06/12 08:31:15;;;;;;;6.53;4.10;;;22.00;96.20;;;;;;5102257;28;20425;-82
2022/06/12 08:33:44;;;;;;;7.83;4.27;;;22.10;95.60;;;;;;5111171;28;20435;-82
2022/06/12 08:36:12;;;;;;;6.30;4.83;;;22.20;95.70;;;;;;5113156;28;20439;-82
2022/06/12 08:38:37;;;;;;;5.53;3.97;;;22.30;95.30;;;;;;5111244;28;20445;-82
2022/06/12 08:41:31;;;;;;;4.40;3.70;;;22.40;95.10;;;;;;5114338;28;20578;-81
2022/06/12 08:44:16;;;;;;;4.37;3.80;;;22.40;94.60;;;;;;5113041;28;20181;-82
2022/06/12 08:46:50;;;;;;;7.00;3.63;;;22.50;93.60;;;;;;5093564;28;20448;-82
2022/06/12 08:49:39;;;;;;;4.63;3.70;;;22.50;93.20;;;;;;5109496;28;20453;-82
2022/06/12 08:52:12;;;;;;;5.40;4.17;;;22.50;93.40;;;;;;5113196;28;20825;-83
2022/06/12 08:54:51;;;;;;;6.10;3.77;;;22.60;93.00;;;;;;5108718;28;20423;-81
2022/06/12 08:57:31;;;;;;;4.80;3.60;;;22.70;92.90;;;;;;5110696;28;20443;-82
2022/06/12 09:00:11;;;;;;;9.10;3.53;;;22.80;92.80;;;;;;5112390;28;20415;-82
2022/06/12 09:02:39;;;;;;;6.07;3.70;;;22.90;92.00;;;;;;5112244;28;21192;-83
2022/06/12 09:05:12;;;;;;;4.83;3.20;;;23.00;91.10;;;;;;5112420;28;20415;-82
2022/06/12 09:07:47;;;;;;;5.37;3.90;;;23.00;91.10;;;;;;5107637;28;20467;-82
2022/06/12 09:10:25;;;;;;;8.20;4.13;;;23.10;90.80;;;;;;5119270;28;20814;-82
2022/06/12 09:12:58;;;;;;;5.10;3.83;;;23.10;91.00;;;;;;5118224;28;20518;-82
2022/06/12 09:15:45;;;;;;;5.70;3.87;;;23.20;90.10;;;;;;5118101;28;20415;-82
2022/06/12 09:18:26;;;;;;;5.23;2.73;;;23.20;90.70;;;;;;5114165;28;20447;-82
2022/06/12 09:21:24;;;;;;;7.07;3.73;;;23.30;90.80;;;;;;5114137;28;20496;-82
2022/06/12 09:24:14;;;;;;;3.50;2.60;;;23.40;90.30;;;;;;5108891;28;20420;-81
2022/06/12 09:26:47;;;;;;;3.57;3.00;;;23.40;89.60;;;;;;5101706;28;20460;-82
2022/06/12 09:29:20;;;;;;;4.97;3.30;;;23.40;89.80;;;;;;5119860;28;20464;-84
2022/06/12 09:32:16;;;;;;;5.47;3.03;;;23.40;89.70;;;;;;5099197;28;20458;-82
2022/06/12 09:34:51;;;;;;;5.83;3.03;;;23.40;89.70;;;;;;5112993;28;20411;-82
2022/06/12 09:40:38;;;;;;;7.50;3.07;;;23.60;89.60;;;;;;5109285;28;20440;-82
2022/06/12 09:43:25;;;;;;;3.10;2.90;;;23.60;89.40;;;;;;5110536;28;20452;-82
2022/06/12 09:46:32;;;;;;;5.00;3.20;;;23.70;89.40;;;;;;5108540;28;20449;-82
2022/06/12 09:49:07;;;;;;;4.50;3.00;;;23.70;89.10;;;;;;5069566;28;20447;-82
2022/06/12 09:52:10;;;;;;;3.97;2.83;;;23.70;88.80;;;;;;5105637;28;20819;-82
2022/06/12 09:54:55;;;;;;;4.80;2.70;;;23.80;88.50;;;;;;5103321;28;20404;-82
2022/06/12 09:57:51;;;;;;;4.40;2.80;;;23.90;87.90;;;;;;5117864;28;20493;-83
2022/06/12 10:00:36;;;;;;;3.03;2.67;;;24.10;88.00;;;;;;5103661;28;20449;-82
2022/06/12 10:03:23;;;;;;;5.70;2.77;;;24.20;87.80;;;;;;5114125;28;20419;-82
2022/06/12 10:05:54;;;;;;;4.13;2.80;;;24.50;87.00;;;;;;5095618;28;20474;-82
2022/06/12 10:08:22;;;;;;;3.00;2.40;;;24.60;86.80;;;;;;5108750;28;20452;-83
2022/06/12 10:11:08;;;;;;;4.03;2.63;;;24.80;85.90;;;;;;5095847;28;20428;-83
2022/06/12 10:13:41;;;;;;;4.57;2.60;;;24.80;86.00;;;;;;5115064;28;20415;-83
2022/06/12 10:16:15;;;;;;;3.30;2.40;;;24.90;85.60;;;;;;5116870;28;20522;-82
2022/06/12 10:18:50;;;;;;;4.03;2.60;;;24.80;85.10;;;;;;5117537;28;20948;-82
2022/06/12 10:21:21;;;;;;;3.93;3.17;;;24.80;84.90;;;;;;5117155;28;20423;-82
2022/06/12 10:23:47;;;;;;;4.07;3.07;;;24.80;84.40;;;;;;5115868;28;20424;-83
2022/06/12 10:26:21;;;;;;;3.10;2.37;;;24.80;84.80;;;;;;5116691;28;20535;-82
2022/06/12 10:29:07;;;;;;;2.83;2.70;;;24.90;84.90;;;;;;5113137;28;20597;-82
2022/06/12 10:31:44;;;;;;;4.30;2.60;;;25.00;85.40;;;;;;5109205;28;20419;-83
2022/06/12 10:34:19;;;;;;;8.67;3.03;;;25.10;85.40;;;;;;5110146;28;20720;-82
2022/06/12 10:36:46;;;;;;;7.27;2.87;;;25.10;85.40;;;;;;5098759;28;20496;-82
2022/06/12 10:39:15;;;;;;;4.87;3.57;;;25.00;84.50;;;;;;5116256;28;20424;-82
2022/06/12 10:41:44;;;;;;;6.23;3.80;;;25.00;84.80;;;;;;5109136;28;20484;-82
2022/06/12 10:44:30;;;;;;;6.03;2.73;;;25.10;84.40;;;;;;5112561;28;20473;-82
2022/06/12 10:47:06;;;;;;;3.10;2.50;;;25.20;85.10;;;;;;5080418;28;20464;-83
2022/06/12 10:49:32;;;;;;;6.00;2.47;;;25.30;83.70;;;;;;5113930;28;20459;-82
2022/06/12 10:52:05;;;;;;;3.37;2.40;;;25.50;83.80;;;;;;5117249;28;20471;-82
2022/06/12 10:54:31;;;;;;;6.83;2.60;;;25.50;83.30;;;;;;5100381;28;20178;-82
2022/06/12 10:57:34;;;;;;;4.00;3.23;;;25.40;82.90;;;;;;5115171;28;20462;-82
2022/06/12 11:00:18;;;;;;;4.07;2.80;;;25.30;82.90;;;;;;5100195;28;20182;-83
2022/06/12 11:02:44;;;;;;;5.07;2.43;;;25.10;83.60;;;;;;5115301;28;20423;-82
2022/06/12 11:05:51;;;;;;;4.43;2.70;;;25.00;83.80;;;;;;5115609;28;20460;-82
2022/06/12 11:08:20;;;;;;;5.10;2.23;;;25.00;83.40;;;;;;5072218;28;20697;-83
2022/06/12 11:10:56;;;;;;;4.33;2.23;;;25.10;83.90;;;;;;5094294;28;20412;-82
2022/06/12 11:13:45;;;;;;;3.23;2.37;;;25.20;83.20;;;;;;5111913;28;20587;-82
2022/06/12 11:16:21;;;;;;;2.73;2.10;;;25.40;82.90;;;;;;5110971;28;20479;-82
2022/06/12 11:19:24;;;;;;;4.67;2.43;;;25.50;82.20;;;;;;5118184;28;20798;-82
2022/06/12 11:22:09;;;;;;;2.93;2.30;;;25.70;81.70;;;;;;5108403;28;20469;-83
2022/06/12 11:25:22;;;;;;;3.80;2.37;;;25.80;80.40;;;;;;5113052;28;20428;-82
2022/06/12 11:28:01;;;;;;;4.80;2.30;;;26.00;81.00;;;;;;5124212;27;20440;-81
2022/06/12 11:30:49;;;;;;;4.73;2.30;;;26.20;79.40;;;;;;5105584;28;20459;-82
2022/06/12 11:33:46;;;;;;;4.67;2.23;;;26.20;77.90;;;;;;5099085;28;20855;-81
2022/06/12 11:36:35;;;;;;;2.70;2.43;;;26.20;78.20;;;;;;5113876;28;20449;-81
2022/06/12 11:39:27;;;;;;;6.00;2.17;;;26.10;77.80;;;;;;5119844;28;20412;-81
2022/06/12 11:42:03;;;;;;;5.57;2.50;;;26.10;78.80;;;;;;5119262;28;20987;-81
2022/06/12 11:45:10;;;;;;;5.67;2.40;;;26.00;78.60;;;;;;5114140;28;20422;-83
2022/06/12 11:47:48;;;;;;;4.60;2.10;;;26.00;78.70;;;;;;5117099;28;20431;-82
2022/06/12 11:50:38;;;;;;;5.37;2.40;;;26.00;79.20;;;;;;5115866;28;20446;-82
2022/06/12 11:53:22;;;;;;;4.53;2.50;;;26.20;80.50;;;;;;5115011;28;20414;-82
2022/06/12 11:56:06;;;;;;;7.57;2.73;;;26.30;79.90;;;;;;5118822;28;20411;-82
2022/06/12 11:59:13;;;;;;;3.20;2.03;;;26.50;77.90;;;;;;5101677;28;20411;-83
2022/06/12 12:02:01;;;;;;;3.90;2.67;;;26.60;78.40;;;;;;5104059;28;20423;-81
2022/06/12 12:04:47;;;;;;;6.23;2.83;;;26.70;78.80;;;;;;5121625;28;20418;-81
2022/06/12 12:07:17;;;;;;;3.00;2.00;;;26.80;77.70;;;;;;5121482;28;20434;-83
2022/06/12 12:10:15;;;;;;;3.43;2.20;;;26.80;77.30;;;;;;5123051;28;20454;-84
2022/06/12 12:12:45;;;;;;;3.83;2.40;;;26.70;77.80;;;;;;5121513;28;20482;-83
2022/06/12 12:15:19;;;;;;;2.97;2.50;;;26.60;77.50;;;;;;5123287;28;20426;-82
2022/06/12 12:17:47;;;;;;;6.17;3.60;;;26.60;77.90;;;;;;5116652;28;20438;-85
2022/06/12 12:20:25;;;;;;;3.30;2.33;;;26.60;77.30;;;;;;5120379;28;20803;-84
2022/06/12 12:23:04;;;;;;;5.53;2.60;;;26.70;78.00;;;;;;5116168;28;20462;-82
2022/06/12 12:26:13;;;;;;;4.10;2.40;;;26.90;77.30;;;;;;5116515;28;20419;-83
2022/06/12 12:29:23;;;;;;;5.80;2.53;;;27.10;77.40;;;;;;5070320;28;20968;-85
2022/06/12 12:31:50;;;;;;;5.13;2.30;;;27.20;76.30;;;;;;5061055;22;20495;-84
2022/06/12 12:34:19;;;;;;;3.23;2.40;;;27.30;76.90;;;;;;5104574;27;20404;-83
2022/06/12 12:42:38;;;;;;;4.73;2.37;;;27.70;74.90;;;;;;5091182;28;20430;-84
2022/06/12 12:45:22;;;;;;;3.47;2.30;;;27.60;75.50;;;;;;5062359;28;20447;-83
2022/06/12 12:48:04;;;;;;;4.80;2.27;;;27.40;76.00;;;;;;5063474;28;20441;-84
2022/06/12 12:50:43;;;;;;;3.60;2.40;;;27.30;76.00;;;;;;5068058;28;20938;-84
2022/06/12 12:53:30;;;;;;;3.93;2.40;;;27.30;76.90;;;;;;5073704;28;20400;-83
2022/06/12 12:56:04;;;;;;;2.80;2.10;;;27.40;77.00;;;;;;5095625;28;20833;-84
2022/06/12 12:58:34;;;;;;;4.77;2.20;;;27.50;77.10;;;;;;5074702;28;20418;-84
2022/06/12 13:01:22;;;;;;;3.80;2.53;;;27.70;77.30;;;;;;5070707;28;20413;-84
2022/06/12 13:04:10;;;;;;;7.63;2.47;;;27.90;77.70;;;;;;5081843;28;20751;-84
2022/06/12 13:06:39;;;;;;;7.70;2.60;;;28.10;78.70;;;;;;5086636;28;20851;-84
2022/06/12 13:09:34;;;;;;;5.87;2.50;;;28.30;76.70;;;;;;5063585;28;20469;-84
2022/06/12 13:12:05;;;;;;;4.03;1.83;;;28.50;77.20;;;;;;5075387;28;20552;-84
2022/06/12 13:15:01;;;;;;;4.10;2.03;;;28.70;76.10;;;;;;5069017;28;20408;-84
2022/06/12 13:18:07;;;;;;;3.40;2.10;;;28.90;72.40;;;;;;5069982;28;20448;-83
2022/06/12 13:21:09;;;;;;;3.30;2.20;;;29.00;73.40;;;;;;5071671;28;20425;-83
2022/06/12 13:24:16;;;;;;;4.43;2.40;;;29.10;72.00;;;;;;5037809;28;20523;-82
2022/06/12 13:26:42;;;;;;;2.50;1.80;;;29.30;72.10;;;;;;5046255;28;20456;-83
2022/06/12 13:29:15;;;;;;;5.50;1.90;;;29.30;70.60;;;;;;5073320;28;20448;-82
2022/06/12 13:31:59;;;;;;;4.00;2.00;;;29.40;70.90;;;;;;5078823;28;20466;-81
2022/06/12 13:34:26;;;;;;;8.50;2.60;;;29.40;71.50;;;;;;5077969;28;20420;-82